<?xml version="1.0" encoding="UTF-8" standalone="no" ?>
<gpx xmlns="http://www.topografix.com/GPX/1/1" xmlns:xsi="http://www.w3.org/2001/XMLSchema-instance" xsi:schemaLocation="http://www.topografix.com/GPX/1/1 http://www.topografix.com/GPX/1/1/gpx.xsd" version="1.1" creator="VisuGPX - https://www.visugpx.com">
  <metadata>
    <name>RSPFY-La Brosse</name>
    <desc><![CDATA[boucle en forêt de Port-royal-des-Champs partant du parking de la pépinière de La Brosse et passant par l'ancienne abbaye de Port Royal.]]></desc>
  </metadata>
  <trk>
    <name><![CDATA[LA BROSSE 21122023-18094611]]></name>
    <extensions>
      <line xmlns="http://www.topografix.com/GPX/gpx_style/0/2">
        <color>0000FF</color>
        <width>4</width>
      </line>
    </extensions>
    <trkseg>
      <trkpt lat="48.73253" lon="2.00592">
        <ele>158.9</ele>
        <time>2023-12-21T13:29:17Z</time>
      </trkpt>
      <trkpt lat="48.73267" lon="2.00584">
        <ele>158.4</ele>
        <time>2023-12-21T13:29:29Z</time>
      </trkpt>
      <trkpt lat="48.73315" lon="2.00539">
        <ele>157</ele>
        <time>2023-12-21T13:30:14Z</time>
      </trkpt>
      <trkpt lat="48.7336" lon="2.00487">
        <ele>156</ele>
        <time>2023-12-21T13:30:59Z</time>
      </trkpt>
      <trkpt lat="48.73401" lon="2.00434">
        <ele>153.5</ele>
        <time>2023-12-21T13:31:43Z</time>
      </trkpt>
      <trkpt lat="48.73422" lon="2.00413">
        <ele>153.1</ele>
        <time>2023-12-21T13:32:03Z</time>
      </trkpt>
      <trkpt lat="48.73449" lon="2.00369">
        <ele>154.6</ele>
        <time>2023-12-21T13:32:34Z</time>
      </trkpt>
      <trkpt lat="48.73489" lon="2.00319">
        <ele>151.5</ele>
        <time>2023-12-21T13:33:16Z</time>
      </trkpt>
      <trkpt lat="48.73536" lon="2.00246">
        <ele>148.6</ele>
        <time>2023-12-21T13:34:10Z</time>
      </trkpt>
      <trkpt lat="48.73577" lon="2.00217">
        <ele>154.3</ele>
        <time>2023-12-21T13:34:46Z</time>
      </trkpt>
      <trkpt lat="48.73572" lon="2.00206">
        <ele>154</ele>
        <time>2023-12-21T13:34:53Z</time>
      </trkpt>
      <trkpt lat="48.73556" lon="2.002">
        <ele>151.9</ele>
        <time>2023-12-21T13:35:06Z</time>
      </trkpt>
      <trkpt lat="48.73551" lon="2.00191">
        <ele>151.6</ele>
        <time>2023-12-21T13:35:13Z</time>
      </trkpt>
      <trkpt lat="48.73542" lon="2.00153">
        <ele>152</ele>
        <time>2023-12-21T13:35:34Z</time>
      </trkpt>
      <trkpt lat="48.73536" lon="2.001">
        <ele>153.3</ele>
        <time>2023-12-21T13:36:02Z</time>
      </trkpt>
      <trkpt lat="48.73511" lon="2.0004">
        <ele>153.4</ele>
        <time>2023-12-21T13:36:40Z</time>
      </trkpt>
      <trkpt lat="48.73512" lon="2.00013">
        <ele>154.2</ele>
        <time>2023-12-21T13:36:54Z</time>
      </trkpt>
      <trkpt lat="48.73531" lon="1.99967">
        <ele>156</ele>
        <time>2023-12-21T13:37:23Z</time>
      </trkpt>
      <trkpt lat="48.73534" lon="1.99938">
        <ele>156</ele>
        <time>2023-12-21T13:37:38Z</time>
      </trkpt>
      <trkpt lat="48.73514" lon="1.99873">
        <ele>155.8</ele>
        <time>2023-12-21T13:38:16Z</time>
      </trkpt>
      <trkpt lat="48.73516" lon="1.99786">
        <ele>156.7</ele>
        <time>2023-12-21T13:39:02Z</time>
      </trkpt>
      <trkpt lat="48.73509" lon="1.99745">
        <ele>157</ele>
        <time>2023-12-21T13:39:24Z</time>
      </trkpt>
      <trkpt lat="48.73518" lon="1.9965">
        <ele>158</ele>
        <time>2023-12-21T13:40:15Z</time>
      </trkpt>
      <trkpt lat="48.73544" lon="1.99545">
        <ele>158.6</ele>
        <time>2023-12-21T13:41:14Z</time>
      </trkpt>
      <trkpt lat="48.7355" lon="1.9952">
        <ele>158.8</ele>
        <time>2023-12-21T13:41:24Z</time>
      </trkpt>
      <trkpt lat="48.73581" lon="1.99495">
        <ele>159.7</ele>
      </trkpt>
      <trkpt lat="48.73618" lon="1.99496">
        <ele>161</ele>
      </trkpt>
      <trkpt lat="48.73742" lon="1.99451">
        <ele>163</ele>
      </trkpt>
      <trkpt lat="48.7383" lon="1.99327">
        <ele>164</ele>
      </trkpt>
      <trkpt lat="48.73827" lon="1.99284">
        <ele>164</ele>
      </trkpt>
      <trkpt lat="48.73841" lon="1.99273">
        <ele>164</ele>
        <time>2023-12-21T13:52:52Z</time>
      </trkpt>
      <trkpt lat="48.73874" lon="1.99264">
        <ele>164</ele>
        <time>2023-12-21T13:53:24Z</time>
      </trkpt>
      <trkpt lat="48.73909" lon="1.99255">
        <ele>164</ele>
        <time>2023-12-21T13:53:52Z</time>
      </trkpt>
      <trkpt lat="48.73946" lon="1.99232">
        <ele>165</ele>
        <time>2023-12-21T13:54:24Z</time>
      </trkpt>
      <trkpt lat="48.73971" lon="1.99227">
        <ele>165</ele>
        <time>2023-12-21T13:54:44Z</time>
      </trkpt>
      <trkpt lat="48.74022" lon="1.99179">
        <ele>165</ele>
        <time>2023-12-21T13:55:32Z</time>
      </trkpt>
      <trkpt lat="48.74043" lon="1.9917">
        <ele>165</ele>
        <time>2023-12-21T13:55:50Z</time>
      </trkpt>
      <trkpt lat="48.74064" lon="1.99146">
        <ele>165</ele>
        <time>2023-12-21T13:56:11Z</time>
      </trkpt>
      <trkpt lat="48.74075" lon="1.99141">
        <ele>165</ele>
        <time>2023-12-21T13:56:20Z</time>
      </trkpt>
      <trkpt lat="48.741" lon="1.99139">
        <ele>165</ele>
        <time>2023-12-21T13:56:40Z</time>
      </trkpt>
      <trkpt lat="48.74124" lon="1.99126">
        <ele>165</ele>
        <time>2023-12-21T13:57:01Z</time>
      </trkpt>
      <trkpt lat="48.74167" lon="1.99116">
        <ele>165</ele>
        <time>2023-12-21T13:57:35Z</time>
      </trkpt>
      <trkpt lat="48.7418" lon="1.99116">
        <ele>165</ele>
        <time>2023-12-21T13:57:46Z</time>
      </trkpt>
      <trkpt lat="48.74222" lon="1.99127">
        <ele>165</ele>
        <time>2023-12-21T13:58:20Z</time>
      </trkpt>
      <trkpt lat="48.74302" lon="1.99128">
        <ele>165</ele>
        <time>2023-12-21T13:59:24Z</time>
      </trkpt>
      <trkpt lat="48.74368" lon="1.99116">
        <ele>164</ele>
        <time>2023-12-21T14:00:17Z</time>
      </trkpt>
      <trkpt lat="48.7439" lon="1.99104">
        <ele>164</ele>
        <time>2023-12-21T14:00:36Z</time>
      </trkpt>
      <trkpt lat="48.744" lon="1.99113">
        <ele>164</ele>
        <time>2023-12-21T14:00:45Z</time>
      </trkpt>
      <trkpt lat="48.74424" lon="1.99149">
        <ele>163.5</ele>
        <time>2023-12-21T14:01:12Z</time>
      </trkpt>
      <trkpt lat="48.7445" lon="1.99165">
        <ele>163</ele>
        <time>2023-12-21T14:01:35Z</time>
      </trkpt>
      <trkpt lat="48.74472" lon="1.99191">
        <ele>163</ele>
        <time>2023-12-21T14:01:57Z</time>
      </trkpt>
      <trkpt lat="48.74514" lon="1.992">
        <ele>162.5</ele>
        <time>2023-12-21T14:02:31Z</time>
      </trkpt>
      <trkpt lat="48.74577" lon="1.99195">
        <ele>161.2</ele>
        <time>2023-12-21T14:03:22Z</time>
      </trkpt>
      <trkpt lat="48.74607" lon="1.99178">
        <ele>161</ele>
        <time>2023-12-21T14:03:47Z</time>
      </trkpt>
      <trkpt lat="48.74617" lon="1.99177">
        <ele>160.8</ele>
        <time>2023-12-21T14:03:55Z</time>
      </trkpt>
      <trkpt lat="48.74635" lon="1.9916">
        <ele>160.1</ele>
        <time>2023-12-21T14:04:12Z</time>
      </trkpt>
      <trkpt lat="48.74684" lon="1.9914">
        <ele>155.6</ele>
        <time>2023-12-21T14:04:53Z</time>
      </trkpt>
      <trkpt lat="48.74731" lon="1.99151">
        <ele>148.5</ele>
        <time>2023-12-21T14:05:31Z</time>
      </trkpt>
      <trkpt lat="48.74753" lon="1.99169">
        <ele>145.9</ele>
        <time>2023-12-21T14:05:51Z</time>
      </trkpt>
      <trkpt lat="48.74784" lon="1.99187">
        <ele>145.2</ele>
        <time>2023-12-21T14:06:18Z</time>
      </trkpt>
      <trkpt lat="48.74791" lon="1.99163">
        <ele>145.4</ele>
        <time>2023-12-21T14:06:31Z</time>
      </trkpt>
      <trkpt lat="48.74788" lon="1.99146">
        <ele>145.1</ele>
        <time>2023-12-21T14:06:41Z</time>
      </trkpt>
      <trkpt lat="48.74791" lon="1.99127">
        <ele>145.4</ele>
        <time>2023-12-21T14:06:51Z</time>
      </trkpt>
      <trkpt lat="48.7482" lon="1.99065">
        <ele>147.3</ele>
        <time>2023-12-21T14:07:31Z</time>
      </trkpt>
      <trkpt lat="48.7484" lon="1.99038">
        <ele>147.9</ele>
        <time>2023-12-21T14:07:53Z</time>
      </trkpt>
      <trkpt lat="48.74853" lon="1.99005">
        <ele>148.5</ele>
        <time>2023-12-21T14:08:13Z</time>
      </trkpt>
      <trkpt lat="48.74876" lon="1.98975">
        <ele>148.5</ele>
        <time>2023-12-21T14:08:37Z</time>
      </trkpt>
      <trkpt lat="48.74911" lon="1.98957">
        <ele>149.6</ele>
        <time>2023-12-21T14:09:07Z</time>
      </trkpt>
      <trkpt lat="48.7493" lon="1.98939">
        <ele>151.1</ele>
        <time>2023-12-21T14:09:25Z</time>
      </trkpt>
      <trkpt lat="48.7498" lon="1.98843">
        <ele>152.8</ele>
        <time>2023-12-21T14:10:29Z</time>
      </trkpt>
      <trkpt lat="48.74997" lon="1.9879">
        <ele>154.2</ele>
        <time>2023-12-21T14:11:00Z</time>
      </trkpt>
      <trkpt lat="48.75001" lon="1.98759">
        <ele>154.2</ele>
        <time>2023-12-21T14:11:17Z</time>
      </trkpt>
      <trkpt lat="48.7502" lon="1.98685">
        <ele>155.6</ele>
        <time>2023-12-21T14:11:59Z</time>
      </trkpt>
      <trkpt lat="48.75035" lon="1.98645">
        <ele>156</ele>
        <time>2023-12-21T14:12:23Z</time>
      </trkpt>
      <trkpt lat="48.75072" lon="1.98596">
        <ele>155.8</ele>
        <time>2023-12-21T14:13:03Z</time>
      </trkpt>
      <trkpt lat="48.75126" lon="1.98536">
        <ele>158</ele>
        <time>2023-12-21T14:13:56Z</time>
      </trkpt>
      <trkpt lat="48.75135" lon="1.98535">
        <ele>158.2</ele>
        <time>2023-12-21T14:14:03Z</time>
      </trkpt>
      <trkpt lat="48.75142" lon="1.98542">
        <ele>158.8</ele>
        <time>2023-12-21T14:14:10Z</time>
      </trkpt>
      <trkpt lat="48.75167" lon="1.98551">
        <ele>161.7</ele>
        <time>2023-12-21T14:14:31Z</time>
      </trkpt>
      <trkpt lat="48.75188" lon="1.98553">
        <ele>163.4</ele>
        <time>2023-12-21T14:14:48Z</time>
      </trkpt>
      <trkpt lat="48.75235" lon="1.98584">
        <ele>165</ele>
        <time>2023-12-21T14:15:29Z</time>
      </trkpt>
      <trkpt lat="48.75319" lon="1.98605">
        <ele>167.3</ele>
        <time>2023-12-21T14:16:37Z</time>
      </trkpt>
      <trkpt lat="48.75357" lon="1.98638">
        <ele>168</ele>
        <time>2023-12-21T14:17:12Z</time>
      </trkpt>
      <trkpt lat="48.7537" lon="1.98645">
        <ele>168.3</ele>
        <time>2023-12-21T14:17:23Z</time>
      </trkpt>
      <trkpt lat="48.75423" lon="1.98659">
        <ele>170.2</ele>
        <time>2023-12-21T14:18:06Z</time>
      </trkpt>
      <trkpt lat="48.7547" lon="1.98681">
        <ele>171.5</ele>
        <time>2023-12-21T14:18:45Z</time>
      </trkpt>
      <trkpt lat="48.75507" lon="1.98687">
        <ele>172.2</ele>
        <time>2023-12-21T14:19:15Z</time>
      </trkpt>
      <trkpt lat="48.75535" lon="1.98705">
        <ele>173</ele>
        <time>2023-12-21T14:19:39Z</time>
      </trkpt>
      <trkpt lat="48.75545" lon="1.98709">
        <ele>173</ele>
        <time>2023-12-21T14:19:48Z</time>
      </trkpt>
      <trkpt lat="48.75557" lon="1.98708">
        <ele>173</ele>
        <time>2023-12-21T14:19:57Z</time>
      </trkpt>
      <trkpt lat="48.75588" lon="1.98731">
        <ele>172.9</ele>
        <time>2023-12-21T14:20:25Z</time>
      </trkpt>
      <trkpt lat="48.75613" lon="1.98741">
        <ele>172.3</ele>
        <time>2023-12-21T14:20:46Z</time>
      </trkpt>
      <trkpt lat="48.75652" lon="1.98746">
        <ele>170.7</ele>
        <time>2023-12-21T14:21:17Z</time>
      </trkpt>
      <trkpt lat="48.75659" lon="1.98756">
        <ele>169.7</ele>
        <time>2023-12-21T14:21:25Z</time>
      </trkpt>
      <trkpt lat="48.75657" lon="1.9877">
        <ele>169.5</ele>
        <time>2023-12-21T14:21:32Z</time>
      </trkpt>
      <trkpt lat="48.75622" lon="1.98849">
        <ele>170.6</ele>
        <time>2023-12-21T14:22:23Z</time>
      </trkpt>
      <trkpt lat="48.75613" lon="1.98858">
        <ele>170.9</ele>
        <time>2023-12-21T14:22:31Z</time>
      </trkpt>
      <trkpt lat="48.75591" lon="1.98869">
        <ele>171.6</ele>
        <time>2023-12-21T14:22:50Z</time>
      </trkpt>
      <trkpt lat="48.7556" lon="1.98907">
        <ele>172</ele>
        <time>2023-12-21T14:23:22Z</time>
      </trkpt>
      <trkpt lat="48.75563" lon="1.98946">
        <ele>171.7</ele>
        <time>2023-12-21T14:23:42Z</time>
      </trkpt>
      <trkpt lat="48.75588" lon="1.99034">
        <ele>170.8</ele>
        <time>2023-12-21T14:24:33Z</time>
      </trkpt>
      <trkpt lat="48.75589" lon="1.9905">
        <ele>170.8</ele>
        <time>2023-12-21T14:24:41Z</time>
      </trkpt>
      <trkpt lat="48.75582" lon="1.99082">
        <ele>171</ele>
        <time>2023-12-21T14:24:59Z</time>
      </trkpt>
      <trkpt lat="48.75588" lon="1.9911">
        <ele>170.8</ele>
        <time>2023-12-21T14:25:15Z</time>
      </trkpt>
      <trkpt lat="48.7561" lon="1.9915">
        <ele>170</ele>
        <time>2023-12-21T14:25:42Z</time>
      </trkpt>
      <trkpt lat="48.75629" lon="1.99166">
        <ele>169.4</ele>
        <time>2023-12-21T14:26:00Z</time>
      </trkpt>
      <trkpt lat="48.75644" lon="1.99186">
        <ele>168.9</ele>
        <time>2023-12-21T14:26:16Z</time>
      </trkpt>
      <trkpt lat="48.75668" lon="1.99244">
        <ele>169</ele>
        <time>2023-12-21T14:26:52Z</time>
      </trkpt>
      <trkpt lat="48.75675" lon="1.99253">
        <ele>168.7</ele>
        <time>2023-12-21T14:26:59Z</time>
      </trkpt>
      <trkpt lat="48.75698" lon="1.99261">
        <ele>168</ele>
        <time>2023-12-21T14:27:18Z</time>
      </trkpt>
      <trkpt lat="48.75705" lon="1.9927">
        <ele>168</ele>
        <time>2023-12-21T14:27:25Z</time>
      </trkpt>
      <trkpt lat="48.75748" lon="1.99355">
        <ele>167.1</ele>
        <time>2023-12-21T14:28:22Z</time>
      </trkpt>
      <trkpt lat="48.75747" lon="1.99383">
        <ele>167.8</ele>
        <time>2023-12-21T14:28:37Z</time>
      </trkpt>
      <trkpt lat="48.75752" lon="1.99401">
        <ele>167.9</ele>
        <time>2023-12-21T14:28:47Z</time>
      </trkpt>
      <trkpt lat="48.75775" lon="1.99446">
        <ele>167.1</ele>
        <time>2023-12-21T14:29:17Z</time>
      </trkpt>
      <trkpt lat="48.75786" lon="1.99456">
        <ele>167</ele>
        <time>2023-12-21T14:29:27Z</time>
      </trkpt>
      <trkpt lat="48.75806" lon="1.9946">
        <ele>167</ele>
        <time>2023-12-21T14:29:44Z</time>
      </trkpt>
      <trkpt lat="48.75819" lon="1.99452">
        <ele>166.5</ele>
        <time>2023-12-21T14:29:55Z</time>
      </trkpt>
      <trkpt lat="48.75837" lon="1.99462">
        <ele>166</ele>
        <time>2023-12-21T14:30:10Z</time>
      </trkpt>
      <trkpt lat="48.75849" lon="1.99493">
        <ele>166</ele>
        <time>2023-12-21T14:30:29Z</time>
      </trkpt>
      <trkpt lat="48.75882" lon="1.99541">
        <ele>166</ele>
        <time>2023-12-21T14:31:06Z</time>
      </trkpt>
      <trkpt lat="48.75885" lon="1.99595">
        <ele>166</ele>
        <time>2023-12-21T14:31:34Z</time>
      </trkpt>
      <trkpt lat="48.75903" lon="1.99639">
        <ele>165.5</ele>
        <time>2023-12-21T14:32:02Z</time>
      </trkpt>
      <trkpt lat="48.75913" lon="1.99649">
        <ele>165.1</ele>
        <time>2023-12-21T14:32:11Z</time>
      </trkpt>
      <trkpt lat="48.75924" lon="1.9965">
        <ele>165</ele>
        <time>2023-12-21T14:32:20Z</time>
      </trkpt>
      <trkpt lat="48.75933" lon="1.99643">
        <ele>165</ele>
        <time>2023-12-21T14:32:28Z</time>
      </trkpt>
      <trkpt lat="48.75976" lon="1.99627">
        <ele>164.4</ele>
        <time>2023-12-21T14:33:04Z</time>
      </trkpt>
      <trkpt lat="48.75973" lon="1.99638">
        <ele>164</ele>
        <time>2023-12-21T14:33:10Z</time>
      </trkpt>
      <trkpt lat="48.75898" lon="1.99708">
        <ele>165.7</ele>
        <time>2023-12-21T14:34:20Z</time>
      </trkpt>
      <trkpt lat="48.75853" lon="1.99773">
        <ele>166</ele>
        <time>2023-12-21T14:35:10Z</time>
      </trkpt>
      <trkpt lat="48.75793" lon="1.99832">
        <ele>166</ele>
        <time>2023-12-21T14:36:07Z</time>
      </trkpt>
      <trkpt lat="48.75773" lon="1.99861">
        <ele>166</ele>
        <time>2023-12-21T14:36:30Z</time>
      </trkpt>
      <trkpt lat="48.75749" lon="1.99884">
        <ele>166</ele>
        <time>2023-12-21T14:36:52Z</time>
      </trkpt>
      <trkpt lat="48.75733" lon="1.99914">
        <ele>166</ele>
        <time>2023-12-21T14:37:13Z</time>
      </trkpt>
      <trkpt lat="48.75713" lon="1.99925">
        <ele>166</ele>
        <time>2023-12-21T14:37:30Z</time>
      </trkpt>
      <trkpt lat="48.75686" lon="1.99916">
        <ele>166.3</ele>
        <time>2023-12-21T14:37:52Z</time>
      </trkpt>
      <trkpt lat="48.75606" lon="1.99854">
        <ele>167</ele>
        <time>2023-12-21T14:39:04Z</time>
      </trkpt>
      <trkpt lat="48.75546" lon="1.99824">
        <ele>167.6</ele>
        <time>2023-12-21T14:39:54Z</time>
      </trkpt>
      <trkpt lat="48.75444" lon="1.99752">
        <ele>168</ele>
        <time>2023-12-21T14:41:24Z</time>
      </trkpt>
      <trkpt lat="48.75385" lon="1.99715">
        <ele>169.1</ele>
        <time>2023-12-21T14:42:15Z</time>
      </trkpt>
      <trkpt lat="48.75359" lon="1.99703">
        <ele>170</ele>
        <time>2023-12-21T14:42:37Z</time>
      </trkpt>
      <trkpt lat="48.75338" lon="1.99678">
        <ele>170</ele>
        <time>2023-12-21T14:42:59Z</time>
      </trkpt>
      <trkpt lat="48.75303" lon="1.99656">
        <ele>171</ele>
        <time>2023-12-21T14:43:29Z</time>
      </trkpt>
      <trkpt lat="48.75263" lon="1.9964">
        <ele>171</ele>
        <time>2023-12-21T14:44:02Z</time>
      </trkpt>
      <trkpt lat="48.75224" lon="1.9963">
        <ele>171</ele>
        <time>2023-12-21T14:44:34Z</time>
      </trkpt>
      <trkpt lat="48.75179" lon="1.99589">
        <ele>171</ele>
        <time>2023-12-21T14:45:16Z</time>
      </trkpt>
      <trkpt lat="48.75127" lon="1.9957">
        <ele>170.6</ele>
        <time>2023-12-21T14:45:59Z</time>
      </trkpt>
      <trkpt lat="48.75105" lon="1.99555">
        <ele>170</ele>
        <time>2023-12-21T14:46:18Z</time>
      </trkpt>
      <trkpt lat="48.75079" lon="1.99546">
        <ele>169.8</ele>
        <time>2023-12-21T14:46:39Z</time>
      </trkpt>
      <trkpt lat="48.75035" lon="1.99498">
        <ele>168.3</ele>
        <time>2023-12-21T14:47:23Z</time>
      </trkpt>
      <trkpt lat="48.74936" lon="1.99424">
        <ele>164.4</ele>
        <time>2023-12-21T14:48:51Z</time>
      </trkpt>
      <trkpt lat="48.74921" lon="1.994">
        <ele>163.3</ele>
        <time>2023-12-21T14:49:09Z</time>
      </trkpt>
      <trkpt lat="48.74907" lon="1.99397">
        <ele>162.3</ele>
        <time>2023-12-21T14:49:20Z</time>
      </trkpt>
      <trkpt lat="48.74874" lon="1.99427">
        <ele>158.3</ele>
        <time>2023-12-21T14:49:51Z</time>
      </trkpt>
      <trkpt lat="48.74856" lon="1.99466">
        <ele>153.5</ele>
        <time>2023-12-21T14:50:16Z</time>
      </trkpt>
      <trkpt lat="48.74862" lon="1.99487">
        <ele>153.6</ele>
        <time>2023-12-21T14:50:28Z</time>
      </trkpt>
      <trkpt lat="48.74875" lon="1.99508">
        <ele>154.3</ele>
        <time>2023-12-21T14:50:43Z</time>
      </trkpt>
      <trkpt lat="48.74871" lon="1.99538">
        <ele>151.5</ele>
        <time>2023-12-21T14:50:59Z</time>
      </trkpt>
      <trkpt lat="48.74862" lon="1.9955">
        <ele>149.2</ele>
        <time>2023-12-21T14:51:09Z</time>
      </trkpt>
      <trkpt lat="48.74858" lon="1.99593">
        <ele>151.5</ele>
        <time>2023-12-21T14:51:32Z</time>
      </trkpt>
      <trkpt lat="48.74851" lon="1.99606">
        <ele>151.1</ele>
        <time>2023-12-21T14:51:41Z</time>
      </trkpt>
      <trkpt lat="48.74844" lon="1.99662">
        <ele>155</ele>
        <time>2023-12-21T14:52:11Z</time>
      </trkpt>
      <trkpt lat="48.74858" lon="1.99733">
        <ele>160.5</ele>
        <time>2023-12-21T14:52:50Z</time>
      </trkpt>
      <trkpt lat="48.74856" lon="1.99769">
        <ele>158.9</ele>
        <time>2023-12-21T14:53:09Z</time>
      </trkpt>
      <trkpt lat="48.7486" lon="1.99805">
        <ele>159.5</ele>
        <time>2023-12-21T14:53:28Z</time>
      </trkpt>
      <trkpt lat="48.74864" lon="1.99825">
        <ele>160.7</ele>
        <time>2023-12-21T14:53:39Z</time>
      </trkpt>
      <trkpt lat="48.74869" lon="1.99826">
        <ele>161.9</ele>
        <time>2023-12-21T14:53:43Z</time>
      </trkpt>
      <trkpt lat="48.74874" lon="1.99873">
        <ele>162.9</ele>
        <time>2023-12-21T14:54:08Z</time>
      </trkpt>
      <trkpt lat="48.7489" lon="1.99914">
        <ele>167</ele>
        <time>2023-12-21T14:54:34Z</time>
      </trkpt>
      <trkpt lat="48.7489" lon="1.9995">
        <ele>166.9</ele>
        <time>2023-12-21T14:54:53Z</time>
      </trkpt>
      <trkpt lat="48.74881" lon="1.99993">
        <ele>164.8</ele>
        <time>2023-12-21T14:55:16Z</time>
      </trkpt>
      <trkpt lat="48.74877" lon="2.00048">
        <ele>164.3</ele>
        <time>2023-12-21T14:55:46Z</time>
      </trkpt>
      <trkpt lat="48.7487" lon="2.00083">
        <ele>164.6</ele>
        <time>2023-12-21T14:56:05Z</time>
      </trkpt>
      <trkpt lat="48.74861" lon="2.00096">
        <ele>163.9</ele>
        <time>2023-12-21T14:56:15Z</time>
      </trkpt>
      <trkpt lat="48.74851" lon="2.00101">
        <ele>161.2</ele>
        <time>2023-12-21T14:56:23Z</time>
      </trkpt>
      <trkpt lat="48.74845" lon="2.00114">
        <ele>160.6</ele>
        <time>2023-12-21T14:56:32Z</time>
      </trkpt>
      <trkpt lat="48.74835" lon="2.00153">
        <ele>161.8</ele>
        <time>2023-12-21T14:56:54Z</time>
      </trkpt>
      <trkpt lat="48.74807" lon="2.00212">
        <ele>161.5</ele>
        <time>2023-12-21T14:57:32Z</time>
      </trkpt>
      <trkpt lat="48.74805" lon="2.00226">
        <ele>162</ele>
        <time>2023-12-21T14:57:40Z</time>
      </trkpt>
      <trkpt lat="48.74816" lon="2.00272">
        <ele>163.1</ele>
        <time>2023-12-21T14:58:05Z</time>
      </trkpt>
      <trkpt lat="48.74816" lon="2.0032">
        <ele>161.7</ele>
        <time>2023-12-21T14:58:31Z</time>
      </trkpt>
      <trkpt lat="48.74822" lon="2.00373">
        <ele>161.5</ele>
        <time>2023-12-21T14:58:59Z</time>
      </trkpt>
      <trkpt lat="48.74833" lon="2.00404">
        <ele>163.4</ele>
        <time>2023-12-21T14:59:18Z</time>
      </trkpt>
      <trkpt lat="48.74826" lon="2.00515">
        <ele>160.5</ele>
        <time>2023-12-21T15:00:17Z</time>
      </trkpt>
      <trkpt lat="48.74838" lon="2.00588">
        <ele>163.7</ele>
        <time>2023-12-21T15:00:56Z</time>
      </trkpt>
      <trkpt lat="48.74838" lon="2.00608">
        <ele>163.7</ele>
        <time>2023-12-21T15:01:07Z</time>
      </trkpt>
      <trkpt lat="48.7483" lon="2.00645">
        <ele>163.4</ele>
        <time>2023-12-21T15:01:28Z</time>
      </trkpt>
      <trkpt lat="48.74822" lon="2.0066">
        <ele>162.5</ele>
        <time>2023-12-21T15:01:38Z</time>
      </trkpt>
      <trkpt lat="48.74793" lon="2.00692">
        <ele>159</ele>
        <time>2023-12-21T15:02:06Z</time>
      </trkpt>
      <trkpt lat="48.7477" lon="2.00736">
        <ele>160.6</ele>
        <time>2023-12-21T15:02:36Z</time>
      </trkpt>
      <trkpt lat="48.74737" lon="2.0078">
        <ele>159</ele>
        <time>2023-12-21T15:03:11Z</time>
      </trkpt>
      <trkpt lat="48.74734" lon="2.00798">
        <ele>159.7</ele>
        <time>2023-12-21T15:03:21Z</time>
      </trkpt>
      <trkpt lat="48.74754" lon="2.00902">
        <ele>162.6</ele>
        <time>2023-12-21T15:04:18Z</time>
      </trkpt>
      <trkpt lat="48.74749" lon="2.00934">
        <ele>160</ele>
        <time>2023-12-21T15:04:36Z</time>
      </trkpt>
      <trkpt lat="48.74723" lon="2.00997">
        <ele>147.3</ele>
        <time>2023-12-21T15:05:15Z</time>
      </trkpt>
      <trkpt lat="48.74697" lon="2.01155">
        <ele>153.7</ele>
        <time>2023-12-21T15:06:41Z</time>
      </trkpt>
      <trkpt lat="48.74682" lon="2.01207">
        <ele>154.1</ele>
        <time>2023-12-21T15:07:11Z</time>
      </trkpt>
      <trkpt lat="48.74682" lon="2.01244">
        <ele>157.5</ele>
        <time>2023-12-21T15:07:30Z</time>
      </trkpt>
      <trkpt lat="48.74675" lon="2.01292">
        <ele>158.3</ele>
        <time>2023-12-21T15:07:56Z</time>
      </trkpt>
      <trkpt lat="48.74678" lon="2.01336">
        <ele>159.6</ele>
        <time>2023-12-21T15:08:20Z</time>
      </trkpt>
      <trkpt lat="48.74671" lon="2.01351">
        <ele>158.6</ele>
        <time>2023-12-21T15:08:29Z</time>
      </trkpt>
      <trkpt lat="48.74653" lon="2.01366">
        <ele>153.6</ele>
        <time>2023-12-21T15:08:46Z</time>
      </trkpt>
      <trkpt lat="48.74638" lon="2.01389">
        <ele>148.6</ele>
        <time>2023-12-21T15:09:03Z</time>
      </trkpt>
      <trkpt lat="48.74626" lon="2.01448">
        <ele>144.8</ele>
        <time>2023-12-21T15:09:35Z</time>
      </trkpt>
      <trkpt lat="48.7461" lon="2.01496">
        <ele>139.9</ele>
        <time>2023-12-21T15:10:04Z</time>
      </trkpt>
      <trkpt lat="48.74602" lon="2.01546">
        <ele>135.4</ele>
        <time>2023-12-21T15:10:31Z</time>
      </trkpt>
      <trkpt lat="48.74587" lon="2.01581">
        <ele>130.9</ele>
        <time>2023-12-21T15:10:53Z</time>
      </trkpt>
      <trkpt lat="48.74568" lon="2.0161">
        <ele>125.3</ele>
        <time>2023-12-21T15:11:15Z</time>
      </trkpt>
      <trkpt lat="48.74557" lon="2.0162">
        <ele>123.2</ele>
        <time>2023-12-21T15:11:25Z</time>
      </trkpt>
      <trkpt lat="48.7456" lon="2.0162">
        <ele>123.7</ele>
        <time>2023-12-21T15:11:27Z</time>
      </trkpt>
      <trkpt lat="48.74544" lon="2.01559">
        <ele>122.8</ele>
        <time>2023-12-21T15:12:02Z</time>
      </trkpt>
      <trkpt lat="48.74525" lon="2.01521">
        <ele>120.4</ele>
        <time>2023-12-21T15:12:27Z</time>
      </trkpt>
      <trkpt lat="48.74531" lon="2.01453">
        <ele>118.2</ele>
        <time>2023-12-21T15:13:03Z</time>
      </trkpt>
      <trkpt lat="48.74572" lon="2.01378">
        <ele>122</ele>
        <time>2023-12-21T15:13:55Z</time>
      </trkpt>
      <trkpt lat="48.74581" lon="2.01335">
        <ele>124.3</ele>
        <time>2023-12-21T15:14:19Z</time>
      </trkpt>
      <trkpt lat="48.74587" lon="2.01251">
        <ele>123.4</ele>
        <time>2023-12-21T15:15:03Z</time>
      </trkpt>
      <trkpt lat="48.746" lon="2.01222">
        <ele>124.8</ele>
        <time>2023-12-21T15:15:22Z</time>
      </trkpt>
      <trkpt lat="48.74637" lon="2.01166">
        <ele>127.4</ele>
        <time>2023-12-21T15:16:04Z</time>
      </trkpt>
      <trkpt lat="48.74667" lon="2.01049">
        <ele>125.9</ele>
        <time>2023-12-21T15:17:10Z</time>
      </trkpt>
      <trkpt lat="48.74669" lon="2.01005">
        <ele>125.8</ele>
        <time>2023-12-21T15:17:33Z</time>
      </trkpt>
      <trkpt lat="48.74661" lon="2.00935">
        <ele>126.2</ele>
        <time>2023-12-21T15:18:11Z</time>
      </trkpt>
      <trkpt lat="48.74665" lon="2.00895">
        <ele>129.3</ele>
        <time>2023-12-21T15:18:32Z</time>
      </trkpt>
      <trkpt lat="48.74652" lon="2.00806">
        <ele>129.2</ele>
        <time>2023-12-21T15:19:20Z</time>
      </trkpt>
      <trkpt lat="48.74655" lon="2.0079">
        <ele>128.3</ele>
        <time>2023-12-21T15:19:29Z</time>
      </trkpt>
      <trkpt lat="48.74675" lon="2.00748">
        <ele>127.7</ele>
        <time>2023-12-21T15:19:56Z</time>
      </trkpt>
      <trkpt lat="48.74719" lon="2.00674">
        <ele>125.9</ele>
        <time>2023-12-21T15:20:49Z</time>
      </trkpt>
      <trkpt lat="48.74726" lon="2.00646">
        <ele>124.3</ele>
        <time>2023-12-21T15:21:05Z</time>
      </trkpt>
      <trkpt lat="48.74715" lon="2.00589">
        <ele>121.5</ele>
        <time>2023-12-21T15:21:36Z</time>
      </trkpt>
      <trkpt lat="48.74705" lon="2.00574">
        <ele>122.1</ele>
        <time>2023-12-21T15:21:47Z</time>
      </trkpt>
      <trkpt lat="48.7468" lon="2.00557">
        <ele>124.9</ele>
        <time>2023-12-21T15:22:09Z</time>
      </trkpt>
      <trkpt lat="48.74676" lon="2.00545">
        <ele>126.1</ele>
        <time>2023-12-21T15:22:16Z</time>
      </trkpt>
      <trkpt lat="48.74673" lon="2.00496">
        <ele>130.6</ele>
        <time>2023-12-21T15:22:42Z</time>
      </trkpt>
      <trkpt lat="48.74647" lon="2.0047">
        <ele>133.1</ele>
        <time>2023-12-21T15:23:07Z</time>
      </trkpt>
      <trkpt lat="48.74636" lon="2.00435">
        <ele>135.5</ele>
        <time>2023-12-21T15:23:28Z</time>
      </trkpt>
      <trkpt lat="48.74618" lon="2.00404">
        <ele>137.7</ele>
        <time>2023-12-21T15:23:50Z</time>
      </trkpt>
      <trkpt lat="48.74609" lon="2.00404">
        <ele>138.9</ele>
        <time>2023-12-21T15:23:57Z</time>
      </trkpt>
      <trkpt lat="48.74601" lon="2.0041">
        <ele>140.1</ele>
        <time>2023-12-21T15:24:04Z</time>
      </trkpt>
      <trkpt lat="48.74577" lon="2.00435">
        <ele>143</ele>
        <time>2023-12-21T15:24:27Z</time>
      </trkpt>
      <trkpt lat="48.74554" lon="2.00482">
        <ele>143.7</ele>
        <time>2023-12-21T15:24:58Z</time>
      </trkpt>
      <trkpt lat="48.74531" lon="2.00504">
        <ele>147.9</ele>
        <time>2023-12-21T15:25:20Z</time>
      </trkpt>
      <trkpt lat="48.74509" lon="2.00551">
        <ele>149.9</ele>
        <time>2023-12-21T15:25:50Z</time>
      </trkpt>
      <trkpt lat="48.74494" lon="2.00569">
        <ele>152.4</ele>
        <time>2023-12-21T15:26:06Z</time>
      </trkpt>
      <trkpt lat="48.74477" lon="2.00615">
        <ele>152.8</ele>
        <time>2023-12-21T15:26:33Z</time>
      </trkpt>
      <trkpt lat="48.7442" lon="2.00703">
        <ele>155.3</ele>
        <time>2023-12-21T15:27:39Z</time>
      </trkpt>
      <trkpt lat="48.74369" lon="2.00766">
        <ele>156.1</ele>
        <time>2023-12-21T15:28:31Z</time>
      </trkpt>
      <trkpt lat="48.74344" lon="2.00813">
        <ele>156.5</ele>
        <time>2023-12-21T15:29:03Z</time>
      </trkpt>
      <trkpt lat="48.74311" lon="2.00858">
        <ele>157.6</ele>
        <time>2023-12-21T15:29:39Z</time>
      </trkpt>
      <trkpt lat="48.74279" lon="2.00923">
        <ele>157</ele>
        <time>2023-12-21T15:30:22Z</time>
      </trkpt>
      <trkpt lat="48.74268" lon="2.00931">
        <ele>157.2</ele>
        <time>2023-12-21T15:30:31Z</time>
      </trkpt>
      <trkpt lat="48.74257" lon="2.00978">
        <ele>156.5</ele>
        <time>2023-12-21T15:30:58Z</time>
      </trkpt>
      <trkpt lat="48.74228" lon="2.0101">
        <ele>155.9</ele>
        <time>2023-12-21T15:31:26Z</time>
      </trkpt>
      <trkpt lat="48.74222" lon="2.01023">
        <ele>156</ele>
        <time>2023-12-21T15:31:35Z</time>
      </trkpt>
      <trkpt lat="48.74211" lon="2.01031">
        <ele>155.9</ele>
        <time>2023-12-21T15:31:44Z</time>
      </trkpt>
      <trkpt lat="48.74199" lon="2.01032">
        <ele>156</ele>
        <time>2023-12-21T15:31:54Z</time>
      </trkpt>
      <trkpt lat="48.74187" lon="2.01025">
        <ele>156.3</ele>
        <time>2023-12-21T15:32:04Z</time>
      </trkpt>
      <trkpt lat="48.74156" lon="2.01005">
        <ele>157</ele>
        <time>2023-12-21T15:32:31Z</time>
      </trkpt>
      <trkpt lat="48.74132" lon="2.00982">
        <ele>157</ele>
        <time>2023-12-21T15:32:54Z</time>
      </trkpt>
      <trkpt lat="48.74125" lon="2.0095">
        <ele>157</ele>
        <time>2023-12-21T15:33:12Z</time>
      </trkpt>
      <trkpt lat="48.74105" lon="2.00902">
        <ele>157</ele>
        <time>2023-12-21T15:33:42Z</time>
      </trkpt>
      <trkpt lat="48.74054" lon="2.00861">
        <ele>155.9</ele>
        <time>2023-12-21T15:34:28Z</time>
      </trkpt>
      <trkpt lat="48.74034" lon="2.00831">
        <ele>155.2</ele>
        <time>2023-12-21T15:34:51Z</time>
      </trkpt>
      <trkpt lat="48.74018" lon="2.00796">
        <ele>155.2</ele>
        <time>2023-12-21T15:35:13Z</time>
      </trkpt>
      <trkpt lat="48.73986" lon="2.00771">
        <ele>155.1</ele>
        <time>2023-12-21T15:35:42Z</time>
      </trkpt>
      <trkpt lat="48.73975" lon="2.0074">
        <ele>155.4</ele>
        <time>2023-12-21T15:36:01Z</time>
      </trkpt>
      <trkpt lat="48.73968" lon="2.00669">
        <ele>156</ele>
        <time>2023-12-21T15:36:38Z</time>
      </trkpt>
      <trkpt lat="48.73947" lon="2.00611">
        <ele>156</ele>
        <time>2023-12-21T15:37:13Z</time>
      </trkpt>
      <trkpt lat="48.73918" lon="2.00591">
        <ele>155</ele>
        <time>2023-12-21T15:37:39Z</time>
      </trkpt>
      <trkpt lat="48.73868" lon="2.0057">
        <ele>154</ele>
        <time>2023-12-21T15:38:20Z</time>
      </trkpt>
      <trkpt lat="48.73834" lon="2.00539">
        <ele>154</ele>
        <time>2023-12-21T15:38:52Z</time>
      </trkpt>
      <trkpt lat="48.73815" lon="2.00533">
        <ele>154.7</ele>
        <time>2023-12-21T15:39:08Z</time>
      </trkpt>
      <trkpt lat="48.73787" lon="2.00515">
        <ele>155.8</ele>
        <time>2023-12-21T15:39:32Z</time>
      </trkpt>
      <trkpt lat="48.73778" lon="2.00503">
        <ele>156</ele>
        <time>2023-12-21T15:39:42Z</time>
      </trkpt>
      <trkpt lat="48.73766" lon="2.00474">
        <ele>156</ele>
        <time>2023-12-21T15:40:00Z</time>
      </trkpt>
      <trkpt lat="48.73751" lon="2.00475">
        <ele>156</ele>
        <time>2023-12-21T15:40:31Z</time>
      </trkpt>
      <trkpt lat="48.7358" lon="2.00705">
        <ele>133.7</ele>
        <time>2023-12-21T15:41:23Z</time>
      </trkpt>
      <trkpt lat="48.73564" lon="2.00681">
        <ele>134.4</ele>
      </trkpt>
      <trkpt lat="48.73552" lon="2.00641">
        <ele>134.9</ele>
      </trkpt>
      <trkpt lat="48.73554" lon="2.00558">
        <ele>138.9</ele>
      </trkpt>
      <trkpt lat="48.73548" lon="2.00501">
        <ele>141.8</ele>
      </trkpt>
      <trkpt lat="48.73552" lon="2.00429">
        <ele>143.8</ele>
      </trkpt>
      <trkpt lat="48.7355" lon="2.00344">
        <ele>145.7</ele>
        <time>2023-12-21T15:41:55Z</time>
      </trkpt>
      <trkpt lat="48.73549" lon="2.00282">
        <ele>147.6</ele>
        <time>2023-12-21T15:42:51Z</time>
      </trkpt>
      <trkpt lat="48.73553" lon="2.00251">
        <ele>149.8</ele>
      </trkpt>
      <trkpt lat="48.73564" lon="2.00231">
        <ele>152</ele>
        <time>2023-12-21T15:44:08Z</time>
      </trkpt>
      <trkpt lat="48.73534" lon="2.00257">
        <ele>148.1</ele>
      </trkpt>
      <trkpt lat="48.73485" lon="2.00335">
        <ele>152.1</ele>
        <time>2023-12-21T15:44:42Z</time>
      </trkpt>
      <trkpt lat="48.73452" lon="2.00366">
        <ele>154.6</ele>
        <time>2023-12-21T15:45:13Z</time>
      </trkpt>
      <trkpt lat="48.73415" lon="2.00389">
        <ele>155.1</ele>
        <time>2023-12-21T15:45:45Z</time>
      </trkpt>
      <trkpt lat="48.7339" lon="2.00422">
        <ele>154.7</ele>
        <time>2023-12-21T15:46:11Z</time>
      </trkpt>
      <trkpt lat="48.73361" lon="2.00475">
        <ele>156</ele>
        <time>2023-12-21T15:46:48Z</time>
      </trkpt>
      <trkpt lat="48.73351" lon="2.00484">
        <ele>156.2</ele>
        <time>2023-12-21T15:46:57Z</time>
      </trkpt>
      <trkpt lat="48.73309" lon="2.00545">
        <ele>157</ele>
        <time>2023-12-21T15:47:44Z</time>
      </trkpt>
      <trkpt lat="48.73278" lon="2.00574">
        <ele>157.7</ele>
        <time>2023-12-21T15:48:13Z</time>
      </trkpt>
      <trkpt lat="48.73258" lon="2.0058">
        <ele>158.6</ele>
        <time>2023-12-21T15:48:29Z</time>
      </trkpt>
    </trkseg>
  </trk>
</gpx>